Time;durP1;ratioP1;P1;durP2;ratioP2;P2;SDS_P1;SDS_P2;PMS_P1;PMS_P2;Temp;Humidity;BMP_temperature;BMP_pressure;BME280_temperature;BME280_humidity;BME280_pressure;Samples;Min_cycle;Max_cycle;Signal;HPM_P1;HPM_P2
2022/10/31 00:00:40;;;;;;;;;;;12.00;99.90;;;;;;5062137;28;19912;-80
2022/10/31 00:03:05;;;;;;;;;;;11.90;99.90;;;;;;5056839;28;19913;-79
2022/10/31 00:05:30;;;;;;;;;;;12.00;99.90;;;;;;5063428;28;20359;-78
2022/10/31 00:07:56;;;;;;;;;;;11.80;99.90;;;;;;5059007;28;19919;-79
2022/10/31 00:10:21;;;;;;;;;;;11.80;99.90;;;;;;5064818;28;19908;-78
2022/10/31 00:12:46;;;;;;;;;;;11.80;99.90;;;;;;5065221;28;19908;-78
2022/10/31 00:15:12;;;;;;;;;;;11.80;99.90;;;;;;5062176;28;20391;-78
2022/10/31 00:17:37;;;;;;;;;;;11.80;99.90;;;;;;5051556;28;19917;-79
2022/10/31 00:20:03;;;;;;;;;;;11.70;99.90;;;;;;5059092;28;19908;-79
2022/10/31 00:22:28;;;;;;;;;;;11.70;99.90;;;;;;5056410;28;19950;-78
2022/10/31 00:24:53;;;;;;;;;;;11.70;99.90;;;;;;5063458;28;19912;-79
2022/10/31 00:27:19;;;;;;;;;;;11.70;99.90;;;;;;5061363;28;19909;-79
2022/10/31 00:29:44;;;;;;;;;;;11.70;99.90;;;;;;5055735;28;19931;-79
2022/10/31 00:32:10;;;;;;;;;;;11.60;99.90;;;;;;5053798;28;20364;-79
2022/10/31 00:34:35;;;;;;;;;;;11.50;99.90;;;;;;5049993;28;19912;-79
2022/10/31 00:37:00;;;;;;;;;;;11.60;99.90;;;;;;5063074;28;19916;-78
2022/10/31 00:39:27;;;;;;;;;;;11.50;99.90;;;;;;5054634;28;19921;-79
2022/10/31 00:41:52;;;;;;;;;;;11.40;99.90;;;;;;5069945;28;19983;-79
2022/10/31 00:44:18;;;;;;;;;;;11.40;99.90;;;;;;5056154;28;19916;-79
2022/10/31 00:46:43;;;;;;;;;;;11.30;99.90;;;;;;5056811;28;19915;-80
2022/10/31 00:49:08;;;;;;;;;;;11.30;99.90;;;;;;5052215;28;19908;-78
2022/10/31 00:51:34;;;;;;;;;;;11.30;99.90;;;;;;5052664;28;19917;-79
2022/10/31 00:53:59;;;;;;;;;;;11.20;99.90;;;;;;5053352;28;20641;-79
2022/10/31 00:56:25;;;;;;;;;;;11.10;99.90;;;;;;5057019;28;19925;-79
2022/10/31 00:58:50;;;;;;;;;;;11.10;99.90;;;;;;5066111;28;19911;-79
2022/10/31 01:01:15;;;;;;;;;;;11.10;99.90;;;;;;5066932;28;19916;-79
2022/10/31 01:03:41;;;;;;;;;;;11.10;99.90;;;;;;5062420;28;19999;-79
2022/10/31 01:06:06;;;;;;;;;;;11.10;99.90;;;;;;5065086;28;19915;-79
2022/10/31 01:08:32;;;;;;;;;;;11.10;99.90;;;;;;5060849;28;19958;-79
2022/10/31 01:11:09;;;;;;;;;;;11.10;99.90;;;;;;5052520;28;19916;-78
2022/10/31 01:13:35;;;;;;;;;;;11.10;99.90;;;;;;5063107;28;19908;-78
2022/10/31 01:16:01;;;;;;;;;;;11.20;99.90;;;;;;5067597;28;20031;-80
2022/10/31 01:18:27;;;;;;;;;;;11.10;99.90;;;;;;5058711;28;20334;-78
2022/10/31 01:21:00;;;;;;;;;;;11.20;99.90;;;;;;5038450;28;19916;-78
2022/10/31 01:23:26;;;;;;;;;;;11.30;99.90;;;;;;5058677;28;20295;-78
2022/10/31 01:25:58;;;;;;;;;;;11.30;99.90;;;;;;5061508;28;20276;-79
2022/10/31 01:28:24;;;;;;;;;;;11.40;99.90;;;;;;5071665;28;20335;-79
2022/10/31 01:30:49;;;;;;;;;;;11.40;99.90;;;;;;5063851;28;20006;-78
2022/10/31 01:33:14;;;;;;;;;;;11.40;99.90;;;;;;5051813;28;19916;-80
2022/10/31 01:35:40;;;;;;;;;;;11.40;99.90;;;;;;5063369;28;19920;-79
2022/10/31 01:38:05;;;;;;;;;;;11.40;99.90;;;;;;5059166;28;19912;-78
2022/10/31 01:40:31;;;;;;;;;;;11.40;99.90;;;;;;5065865;28;19913;-79
2022/10/31 01:42:56;;;;;;;;;;;11.30;99.90;;;;;;5059993;28;19908;-79
2022/10/31 01:45:21;;;;;;;;;;;11.40;99.90;;;;;;5061610;28;20249;-79
2022/10/31 01:47:48;;;;;;;;;;;11.30;99.90;;;;;;5058163;28;19909;-79
2022/10/31 01:50:32;;;;;;;;;;;11.30;99.90;;;;;;5057680;28;20349;-80
2022/10/31 01:52:59;;;;;;;;;;;11.20;99.90;;;;;;5056540;28;19908;-80
2022/10/31 01:55:32;;;;;;;;;;;11.20;99.90;;;;;;5061739;28;19924;-78
2022/10/31 01:58:00;;;;;;;;;;;11.20;99.90;;;;;;5057519;28;20272;-79
2022/10/31 02:00:26;;;;;;;;;;;11.20;99.90;;;;;;5067759;28;20411;-79
2022/10/31 02:02:51;;;;;;;;;;;11.20;99.90;;;;;;5054079;28;19916;-79
2022/10/31 02:05:22;;;;;;;;;;;11.10;99.90;;;;;;5058830;28;19908;-79
2022/10/31 02:07:57;;;;;;;;;;;11.10;99.90;;;;;;5075392;28;20364;-79
2022/10/31 02:10:22;;;;;;;;;;;11.10;99.90;;;;;;5059185;28;19919;-79
2022/10/31 02:12:49;;;;;;;;;;;11.10;99.90;;;;;;5054087;28;19904;-79
2022/10/31 02:15:15;;;;;;;;;;;11.10;99.90;;;;;;5063238;28;19916;-78
2022/10/31 02:17:40;;;;;;;;;;;11.10;99.90;;;;;;5061847;28;20395;-79
2022/10/31 02:20:13;;;;;;;;;;;11.10;99.90;;;;;;5066928;28;20375;-79
2022/10/31 02:22:57;;;;;;;;;;;11.10;99.90;;;;;;5056658;28;19912;-79
2022/10/31 02:25:26;;;;;;;;;;;11.10;99.90;;;;;;5073053;28;19952;-79
2022/10/31 02:28:05;;;;;;;;;;;11.00;99.90;;;;;;5067545;28;19908;-79
2022/10/31 02:30:37;;;;;;;;;;;11.10;99.90;;;;;;5063944;28;19954;-79
2022/10/31 02:33:10;;;;;;;;;;;11.00;99.90;;;;;;5066658;28;20011;-79
2022/10/31 02:35:42;;;;;;;;;;;10.90;99.90;;;;;;5062828;28;19920;-79
2022/10/31 02:38:24;;;;;;;;;;;11.00;99.90;;;;;;5055078;28;19904;-79
2022/10/31 02:40:54;;;;;;;;;;;11.00;99.90;;;;;;5054787;28;19909;-78
2022/10/31 02:43:34;;;;;;;;;;;11.00;99.90;;;;;;5057049;28;20272;-79
2022/10/31 02:46:14;;;;;;;;;;;11.00;99.90;;;;;;5056438;28;19925;-79
2022/10/31 02:48:41;;;;;;;;;;;11.00;99.90;;;;;;5054126;28;19916;-79
2022/10/31 02:51:08;;;;;;;;;;;11.10;99.90;;;;;;5070371;28;19908;-79
2022/10/31 02:53:34;;;;;;;;;;;11.10;99.90;;;;;;5068801;28;19920;-79
2022/10/31 02:56:01;;;;;;;;;;;11.10;99.90;;;;;;5058363;28;19920;-79
2022/10/31 02:58:30;;;;;;;;;;;11.10;99.90;;;;;;5053807;28;19913;-79
2022/10/31 03:01:04;;;;;;;;;;;11.10;99.90;;;;;;5059028;28;19908;-81
2022/10/31 03:03:48;;;;;;;;;;;11.20;99.90;;;;;;5054141;28;20276;-79
2022/10/31 03:06:17;;;;;;;;;;;11.20;99.90;;;;;;5064876;28;19905;-79
2022/10/31 03:08:50;;;;;;;;;;;11.20;99.90;;;;;;5071763;28;19908;-80
2022/10/31 03:11:16;;;;;;;;;;;11.20;99.90;;;;;;5053824;28;20093;-79
2022/10/31 03:14:00;;;;;;;;;;;11.30;99.90;;;;;;5054380;28;19913;-79
2022/10/31 03:16:25;;;;;;;;;;;11.40;99.90;;;;;;5055291;28;20166;-78
2022/10/31 03:19:03;;;;;;;;;;;11.40;99.90;;;;;;5066587;28;19904;-79
2022/10/31 03:21:32;;;;;;;;;;;11.50;99.90;;;;;;5062937;28;20051;-79
2022/10/31 03:23:59;;;;;;;;;;;11.50;99.90;;;;;;5063558;28;19905;-79
2022/10/31 03:26:24;;;;;;;;;;;11.60;99.90;;;;;;5061985;28;19909;-78
2022/10/31 03:28:52;;;;;;;;;;;11.70;99.90;;;;;;5069766;28;19904;-80
2022/10/31 03:31:19;;;;;;;;;;;11.80;99.90;;;;;;5071536;28;20438;-80
2022/10/31 03:33:45;;;;;;;;;;;11.90;99.90;;;;;;5062144;28;20307;-80
2022/10/31 03:36:11;;;;;;;;;;;12.00;99.90;;;;;;5062724;28;20526;-80
2022/10/31 03:38:37;;;;;;;;;;;12.10;99.90;;;;;;5061676;28;20007;-80
2022/10/31 03:41:05;;;;;;;;;;;12.10;99.90;;;;;;5053394;28;19916;-80
2022/10/31 03:43:32;;;;;;;;;;;12.10;99.90;;;;;;5053037;28;19913;-80
2022/10/31 03:45:58;;;;;;;;;;;12.20;99.90;;;;;;5052776;28;19955;-80
2022/10/31 03:48:24;;;;;;;;;;;12.20;99.90;;;;;;5054469;28;19951;-79
2022/10/31 03:50:52;;;;;;;;;;;12.30;99.90;;;;;;5051818;28;23798;-80
2022/10/31 03:53:53;;;;;;;;;;;12.30;99.90;;;;;;5066598;28;19987;-79
2022/10/31 03:56:32;;;;;;;;;;;12.30;99.90;;;;;;4973805;28;19922;-78
2022/10/31 03:59:00;;;;;;;;;;;12.40;99.90;;;;;;5042165;28;20307;-81
2022/10/31 04:01:27;;;;;;;;;;;12.40;99.90;;;;;;5062346;28;19908;-79
2022/10/31 04:03:52;;;;;;;;;;;12.40;99.90;;;;;;5057556;28;20253;-80
2022/10/31 04:06:19;;;;;;;;;;;12.40;99.90;;;;;;5057220;28;19915;-79
2022/10/31 04:08:47;;;;;;;;;;;12.40;99.90;;;;;;5065207;28;19904;-81
2022/10/31 04:11:15;;;;;;;;;;;12.50;99.90;;;;;;5052924;28;19959;-80
2022/10/31 04:13:42;;;;;;;;;;;12.40;99.90;;;;;;5065420;28;19908;-80
2022/10/31 04:16:07;;;;;;;;;;;12.50;99.90;;;;;;5060340;28;20339;-79
2022/10/31 04:18:33;;;;;;;;;;;12.50;99.90;;;;;;5051577;28;20003;-79
2022/10/31 04:20:59;;;;;;;;;;;12.50;99.90;;;;;;5059791;28;20006;-79
2022/10/31 04:23:25;;;;;;;;;;;12.50;99.90;;;;;;5058404;28;20007;-79
2022/10/31 04:25:51;;;;;;;;;;;12.50;99.90;;;;;;5062329;28;19908;-80
2022/10/31 04:28:16;;;;;;;;;;;12.50;99.90;;;;;;5063134;28;19912;-80
2022/10/31 04:30:42;;;;;;;;;;;12.50;99.90;;;;;;5066102;28;19952;-80
2022/10/31 04:33:07;;;;;;;;;;;12.50;99.90;;;;;;5051378;28;19928;-79
2022/10/31 04:35:33;;;;;;;;;;;12.60;99.90;;;;;;5057944;28;19928;-80
2022/10/31 04:37:58;;;;;;;;;;;12.50;99.90;;;;;;5067293;28;19909;-79
2022/10/31 04:40:23;;;;;;;;;;;12.50;99.90;;;;;;5053038;28;19927;-79
2022/10/31 04:42:49;;;;;;;;;;;12.50;99.90;;;;;;5058732;28;20376;-79
2022/10/31 04:45:14;;;;;;;;;;;12.50;99.90;;;;;;5053317;28;19908;-80
2022/10/31 04:47:40;;;;;;;;;;;12.50;99.90;;;;;;5032614;28;20240;-80
2022/10/31 04:50:05;;;;;;;;;;;12.50;99.90;;;;;;5054849;28;19912;-79
2022/10/31 04:52:31;;;;;;;;;;;12.40;99.90;;;;;;5058059;28;19912;-80
2022/10/31 04:54:56;;;;;;;;;;;12.50;99.90;;;;;;5053564;28;20345;-79
2022/10/31 04:57:22;;;;;;;;;;;12.40;99.90;;;;;;5059205;28;19915;-79
2022/10/31 04:59:47;;;;;;;;;;;12.40;99.90;;;;;;5059858;28;19965;-79
2022/10/31 05:02:12;;;;;;;;;;;12.40;99.90;;;;;;5061200;28;20275;-80
2022/10/31 05:04:38;;;;;;;;;;;12.40;99.90;;;;;;5062191;28;20418;-79
2022/10/31 05:07:03;;;;;;;;;;;12.40;99.90;;;;;;5065258;28;19914;-80
2022/10/31 05:09:29;;;;;;;;;;;12.30;99.90;;;;;;5067024;28;19904;-80
2022/10/31 05:11:54;;;;;;;;;;;12.30;99.90;;;;;;5066681;28;20356;-79
2022/10/31 05:14:19;;;;;;;;;;;12.30;99.90;;;;;;5072670;28;19908;-80
2022/10/31 05:16:45;;;;;;;;;;;12.30;99.90;;;;;;5067229;28;19947;-80
2022/10/31 05:19:10;;;;;;;;;;;12.30;99.90;;;;;;5073734;28;19904;-81
2022/10/31 05:21:36;;;;;;;;;;;12.30;99.90;;;;;;5063979;28;19913;-80
2022/10/31 05:24:01;;;;;;;;;;;12.20;99.90;;;;;;5070682;28;19912;-79
2022/10/31 05:26:27;;;;;;;;;;;12.20;99.90;;;;;;5061805;28;19913;-79
2022/10/31 05:28:52;;;;;;;;;;;12.20;99.90;;;;;;5072570;28;20003;-77
2022/10/31 05:31:19;;;;;;;;;;;12.20;99.90;;;;;;5059122;28;19912;-77
2022/10/31 05:33:44;;;;;;;;;;;12.20;99.90;;;;;;5071315;28;19924;-74
2022/10/31 05:36:09;;;;;;;;;;;12.20;99.90;;;;;;5068188;28;19969;-74
2022/10/31 05:38:35;;;;;;;;;;;12.20;99.90;;;;;;5050780;28;19983;-74
2022/10/31 05:41:00;;;;;;;;;;;12.20;99.90;;;;;;5071029;28;20340;-74
2022/10/31 05:43:26;;;;;;;;;;;12.20;99.90;;;;;;5061876;28;19909;-75
2022/10/31 05:45:53;;;;;;;;;;;12.20;99.90;;;;;;5060682;28;20386;-79
2022/10/31 05:48:18;;;;;;;;;;;12.20;99.90;;;;;;5075803;28;19950;-74
2022/10/31 05:50:44;;;;;;;;;;;12.10;99.90;;;;;;5066383;28;20003;-73
2022/10/31 05:53:09;;;;;;;;;;;12.10;99.90;;;;;;5040475;28;19956;-73
2022/10/31 05:55:35;;;;;;;;;;;12.10;99.90;;;;;;5050776;28;19978;-77
2022/10/31 05:58:00;;;;;;;;;;;12.10;99.90;;;;;;5060028;28;20460;-75
2022/10/31 06:00:26;;;;;;;;;;;12.10;99.90;;;;;;5042385;28;19916;-74
2022/10/31 06:02:59;;;;;;;;;;;12.10;99.90;;;;;;5049767;28;19916;-74
2022/10/31 06:05:24;;;;;;;;;;;12.10;99.90;;;;;;5040128;28;19909;-74
2022/10/31 06:07:50;;;;;;;;;;;12.10;99.90;;;;;;5046864;28;19915;-76
2022/10/31 06:10:15;;;;;;;;;;;12.10;99.90;;;;;;5076160;28;20041;-74
2022/10/31 06:12:41;;;;;;;;;;;12.10;99.90;;;;;;5072770;28;20338;-74
2022/10/31 06:15:07;;;;;;;;;;;12.10;99.90;;;;;;5062228;28;19913;-74
2022/10/31 06:17:33;;;;;;;;;;;12.10;99.90;;;;;;5061171;28;19908;-74
2022/10/31 06:19:59;;;;;;;;;;;12.10;99.90;;;;;;5055679;28;20376;-75
2022/10/31 06:22:24;;;;;;;;;;;12.00;99.90;;;;;;5071521;28;19904;-74
2022/10/31 06:24:50;;;;;;;;;;;12.00;99.90;;;;;;5060489;28;19909;-75
2022/10/31 06:27:15;;;;;;;;;;;12.00;99.90;;;;;;5061660;28;19982;-73
2022/10/31 06:29:41;;;;;;;;;;;12.00;99.90;;;;;;5082089;28;19956;-74
2022/10/31 06:32:09;;;;;;;;;;;12.00;99.90;;;;;;5049235;28;19908;-73
2022/10/31 06:34:34;;;;;;;;;;;11.90;99.90;;;;;;5063130;28;19916;-75
2022/10/31 06:37:00;;;;;;;;;;;11.90;99.90;;;;;;5062752;28;19908;-74
2022/10/31 06:39:25;;;;;;;;;;;11.90;99.90;;;;;;5070076;28;19913;-74
2022/10/31 06:41:51;;;;;;;;;;;11.90;99.90;;;;;;5046672;28;19909;-74
2022/10/31 06:44:16;;;;;;;;;;;12.00;99.90;;;;;;5069890;28;20391;-74
2022/10/31 06:46:41;;;;;;;;;;;11.90;99.90;;;;;;5058634;28;20359;-75
2022/10/31 06:49:07;;;;;;;;;;;12.00;99.90;;;;;;5054296;28;19948;-74
2022/10/31 06:51:32;;;;;;;;;;;11.90;99.90;;;;;;5055612;28;20003;-74
2022/10/31 06:53:58;;;;;;;;;;;11.90;99.90;;;;;;5058485;28;20008;-74
2022/10/31 06:56:23;;;;;;;;;;;12.00;99.90;;;;;;5057644;28;19977;-74
2022/10/31 06:58:48;;;;;;;;;;;12.00;99.90;;;;;;5060663;28;20412;-74
2022/10/31 07:01:14;;;;;;;;;;;12.00;99.90;;;;;;5042963;28;20249;-74
2022/10/31 07:03:39;;;;;;;;;;;12.00;99.90;;;;;;5053130;28;19905;-74
2022/10/31 07:06:05;;;;;;;;;;;12.00;99.90;;;;;;5061525;28;19962;-74
2022/10/31 07:08:30;;;;;;;;;;;12.00;99.90;;;;;;5045192;28;20353;-74
2022/10/31 07:10:56;;;;;;;;;;;12.00;99.90;;;;;;5042991;28;19916;-74
2022/10/31 07:13:25;;;;;;;;;;;12.00;99.90;;;;;;5043487;28;19904;-74
2022/10/31 07:15:54;;;;;;;;;;;12.00;99.90;;;;;;5053526;28;19951;-73
2022/10/31 07:18:20;;;;;;;;;;;12.10;99.90;;;;;;5059863;28;19912;-75
2022/10/31 07:20:46;;;;;;;;;;;12.10;99.90;;;;;;5059671;28;19935;-74
2022/10/31 07:23:11;;;;;;;;;;;12.10;99.90;;;;;;5056665;28;19955;-72
2022/10/31 07:25:37;;;;;;;;;;;12.10;99.90;;;;;;5054472;28;19912;-75
2022/10/31 07:28:03;;;;;;;;;;;12.10;99.90;;;;;;5059177;28;19915;-74
2022/10/31 07:30:28;;;;;;;;;;;12.10;99.90;;;;;;5060254;28;19908;-72
2022/10/31 07:32:55;;;;;;;;;;;12.20;99.90;;;;;;5051565;28;19939;-72
2022/10/31 07:35:21;;;;;;;;;;;12.20;99.90;;;;;;5052683;28;19916;-74
2022/10/31 07:37:47;;;;;;;;;;;12.30;99.90;;;;;;5055265;28;19916;-72
2022/10/31 07:40:13;;;;;;;;;;;12.30;99.90;;;;;;5054186;28;20307;-72
2022/10/31 07:42:42;;;;;;;;;;;12.30;99.90;;;;;;5061589;28;19973;-73
2022/10/31 07:45:11;;;;;;;;;;;12.40;99.90;;;;;;5066655;28;19912;-71
2022/10/31 07:47:40;;;;;;;;;;;12.40;99.90;;;;;;5053814;28;19908;-72
2022/10/31 07:50:06;;;;;;;;;;;12.50;99.90;;;;;;5056870;28;20280;-70
2022/10/31 07:52:32;;;;;;;;;;;12.50;99.90;;;;;;5045358;28;19919;-71
2022/10/31 07:54:57;;;;;;;;;;;12.50;99.90;;;;;;5059599;28;19920;-71
2022/10/31 07:57:23;;;;;;;;;;;12.40;99.90;;;;;;5058054;28;19969;-71
2022/10/31 07:59:48;;;;;;;;;;;12.40;99.90;;;;;;5049479;28;19970;-70
2022/10/31 08:02:14;;;;;;;;;;;12.40;99.90;;;;;;5048470;28;19909;-72
2022/10/31 08:04:39;;;;;;;;;;;12.30;99.90;;;;;;5059207;28;19915;-71
2022/10/31 08:07:04;;;;;;;;;;;12.30;99.90;;;;;;5060439;28;19912;-71
2022/10/31 08:09:30;;;;;;;;;;;12.40;99.90;;;;;;5060520;28;19908;-71
2022/10/31 08:11:55;;;;;;;;;;;12.40;99.90;;;;;;5057013;28;19912;-72
2022/10/31 08:14:22;;;;;;;;;;;12.40;99.90;;;;;;5052615;28;19919;-71
2022/10/31 08:16:47;;;;;;;;;;;12.40;99.90;;;;;;5057554;28;19921;-70
2022/10/31 08:19:13;;;;;;;;;;;12.40;99.90;;;;;;5064239;28;19904;-71
2022/10/31 08:21:38;;;;;;;;;;;12.50;99.90;;;;;;5062258;28;19908;-71
2022/10/31 08:24:04;;;;;;;;;;;12.60;99.90;;;;;;5055969;28;19993;-71
2022/10/31 08:26:29;;;;;;;;;;;12.60;99.90;;;;;;5050745;28;19966;-71
2022/10/31 08:28:54;;;;;;;;;;;12.60;99.90;;;;;;5053009;28;20347;-71
2022/10/31 08:31:20;;;;;;;;;;;12.60;99.90;;;;;;5058428;28;19995;-73
2022/10/31 08:33:46;;;;;;;;;;;12.60;99.90;;;;;;5052006;28;20023;-71
2022/10/31 08:36:11;;;;;;;;;;;12.60;99.90;;;;;;5063954;28;19923;-72
2022/10/31 08:38:37;;;;;;;;;;;12.60;99.90;;;;;;5053868;28;19909;-71
2022/10/31 08:41:02;;;;;;;;;;;12.60;99.90;;;;;;5053669;28;19955;-71
2022/10/31 08:43:27;;;;;;;;;;;12.60;99.90;;;;;;5051283;28;20348;-72
2022/10/31 08:45:54;;;;;;;;;;;12.60;99.90;;;;;;5055236;28;20263;-71
2022/10/31 08:48:20;;;;;;;;;;;12.70;99.90;;;;;;5056613;28;19907;-71
2022/10/31 08:50:46;;;;;;;;;;;12.70;99.90;;;;;;5061585;28;19916;-72
2022/10/31 08:53:12;;;;;;;;;;;12.90;99.90;;;;;;5054181;28;19912;-71
2022/10/31 08:55:39;;;;;;;;;;;12.80;99.90;;;;;;5052330;28;19917;-71
2022/10/31 08:58:05;;;;;;;;;;;12.90;99.90;;;;;;5052483;28;20006;-71
2022/10/31 09:00:31;;;;;;;;;;;13.00;99.90;;;;;;5052833;28;20333;-71
2022/10/31 09:02:57;;;;;;;;;;;13.00;99.90;;;;;;5054949;28;19995;-72
2022/10/31 09:05:23;;;;;;;;;;;13.00;99.90;;;;;;5054409;28;20000;-72
2022/10/31 09:07:48;;;;;;;;;;;13.00;99.90;;;;;;5056405;28;19995;-71
2022/10/31 09:10:14;;;;;;;;;;;13.00;99.90;;;;;;5051990;28;20132;-72
2022/10/31 09:12:39;;;;;;;;;;;13.10;99.90;;;;;;5052691;28;20399;-71
2022/10/31 09:15:06;;;;;;;;;;;13.20;99.90;;;;;;5051600;28;19920;-72
2022/10/31 09:17:31;;;;;;;;;;;13.10;99.90;;;;;;5048084;28;19912;-71
2022/10/31 09:19:57;;;;;;;;;;;13.30;99.90;;;;;;5060664;28;19915;-69
2022/10/31 09:22:22;;;;;;;;;;;13.30;99.90;;;;;;5041925;28;19905;-69
2022/10/31 09:24:48;;;;;;;;;;;13.30;99.90;;;;;;5052599;28;19909;-68
2022/10/31 09:27:13;;;;;;;;;;;13.30;99.90;;;;;;5053922;28;19991;-68
2022/10/31 09:29:39;;;;;;;;;;;13.10;99.90;;;;;;5067548;28;19951;-69
2022/10/31 09:32:04;;;;;;;;;;;13.30;99.90;;;;;;5053209;28;19913;-68
2022/10/31 09:34:29;;;;;;;;;;;13.20;99.90;;;;;;5051635;28;19920;-69
2022/10/31 09:36:55;;;;;;;;;;;13.00;99.90;;;;;;5059372;28;19921;-68
2022/10/31 09:39:20;;;;;;;;;;;13.10;99.90;;;;;;5057660;28;20268;-71
2022/10/31 09:41:58;;;;;;;;;;;13.30;99.90;;;;;;5054422;28;19912;-72
2022/10/31 09:44:39;;;;;;;;;;;13.30;99.90;;;;;;5052009;28;19909;-72
2022/10/31 09:47:08;;;;;;;;;;;13.30;99.90;;;;;;5058617;28;19908;-70
2022/10/31 09:49:37;;;;;;;;;;;13.30;99.90;;;;;;5056415;28;20387;-71
2022/10/31 09:52:05;;;;;;;;;;;13.20;99.70;;;;;;5053208;28;19916;-70
2022/10/31 09:54:49;;;;;;;;;;;13.20;99.70;;;;;;5052442;28;19912;-71
2022/10/31 09:57:16;;;;;;;;;;;13.20;99.70;;;;;;5057488;28;20315;-69
2022/10/31 09:59:43;;;;;;;;;;;13.10;99.70;;;;;;5064772;28;20241;-71
2022/10/31 10:02:16;;;;;;;;;;;13.20;99.70;;;;;;5054766;28;19916;-71
2022/10/31 10:04:52;;;;;;;;;;;13.20;99.70;;;;;;5045921;28;19919;-70
2022/10/31 10:07:35;;;;;;;;;;;13.20;99.60;;;;;;5056534;28;20383;-70
2022/10/31 10:10:01;;;;;;;;;;;13.30;99.70;;;;;;5059937;28;19943;-72
2022/10/31 10:12:37;;;;;;;;;;;13.20;99.60;;;;;;5042281;28;20007;-70
2022/10/31 10:15:20;;;;;;;;;;;13.30;99.70;;;;;;5054946;28;20360;-71
2022/10/31 10:18:00;;;;;;;;;;;13.30;99.60;;;;;;5042726;28;19919;-71
2022/10/31 10:20:31;;;;;;;;;;;13.50;99.60;;;;;;5055320;28;19912;-70
2022/10/31 10:23:22;;;;;;;;;;;13.60;99.60;;;;;;5059343;28;20411;-71
2022/10/31 10:25:52;;;;;;;;;;;13.60;99.50;;;;;;5059829;28;19920;-74
2022/10/31 10:28:23;;;;;;;;;;;13.60;99.40;;;;;;5063380;28;20022;-70
2022/10/31 10:30:50;;;;;;;;;;;13.70;99.30;;;;;;5058245;28;19905;-74
2022/10/31 10:33:22;;;;;;;;;;;13.70;99.20;;;;;;5066291;28;20299;-71
2022/10/31 10:35:52;;;;;;;;;;;13.70;98.90;;;;;;5064622;28;20356;-70
2022/10/31 10:38:30;;;;;;;;;;;13.70;99.00;;;;;;5060672;28;19915;-71
2022/10/31 10:40:55;;;;;;;;;;;13.60;98.70;;;;;;5063069;28;20021;-70
2022/10/31 10:43:21;;;;;;;;;;;13.60;98.70;;;;;;5062491;28;19960;-73
2022/10/31 10:48:39;;;;;;;;;;;13.80;98.60;;;;;;5047486;28;19962;-75
2022/10/31 10:51:06;;;;;;;;;;;13.70;98.20;;;;;;5056686;28;19915;-71
2022/10/31 10:54:01;;;;;;;;;;;14.00;98.30;;;;;;5054764;28;19964;-72
2022/10/31 10:56:35;;;;;;;;;;;13.80;97.90;;;;;;5053156;28;19916;-71
2022/10/31 10:59:01;;;;;;;;;;;13.80;97.70;;;;;;5056041;28;19912;-70
2022/10/31 11:01:26;;;;;;;;;;;14.00;97.90;;;;;;5053829;28;19978;-71
2022/10/31 11:03:52;;;;;;;;;;;14.10;97.80;;;;;;5053344;28;19908;-71
2022/10/31 11:06:21;;;;;;;;;;;14.10;97.50;;;;;;5055699;28;19981;-72
2022/10/31 11:08:48;;;;;;;;;;;14.00;97.30;;;;;;5040422;28;19909;-74
2022/10/31 11:11:16;;;;;;;;;;;14.00;96.80;;;;;;5059158;28;19904;-71
2022/10/31 11:13:43;;;;;;;;;;;14.00;97.20;;;;;;5063310;28;19955;-70
2022/10/31 11:16:10;;;;;;;;;;;14.00;96.80;;;;;;5040157;28;19923;-69
2022/10/31 11:18:37;;;;;;;;;;;14.00;96.50;;;;;;5062732;28;20398;-70
2022/10/31 11:21:04;;;;;;;;;;;14.10;96.60;;;;;;5058521;28;20419;-71
2022/10/31 11:23:30;;;;;;;;;;;14.10;96.20;;;;;;5057648;28;20329;-70
2022/10/31 11:26:05;;;;;;;;;;;14.20;96.20;;;;;;5056963;28;20002;-71
2022/10/31 11:28:34;;;;;;;;;;;14.50;96.10;;;;;;5066330;28;19951;-72
2022/10/31 11:31:04;;;;;;;;;;;14.50;95.50;;;;;;5046619;28;20006;-72
2022/10/31 11:33:35;;;;;;;;;;;14.60;95.20;;;;;;5057916;28;19964;-76
2022/10/31 11:36:13;;;;;;;;;;;14.80;94.60;;;;;;5055806;28;19924;-72
2022/10/31 11:38:44;;;;;;;;;;;14.70;94.30;;;;;;5034304;28;20391;-73
2022/10/31 11:41:09;;;;;;;;;;;14.90;94.40;;;;;;5044818;28;19917;-73
2022/10/31 11:43:35;;;;;;;;;;;14.60;94.00;;;;;;5056145;28;19939;-72
2022/10/31 11:46:08;;;;;;;;;;;14.60;94.10;;;;;;5052262;28;19962;-74
2022/10/31 11:48:33;;;;;;;;;;;14.60;93.90;;;;;;5056282;28;20351;-71
2022/10/31 11:50:59;;;;;;;;;;;14.60;93.70;;;;;;5051673;28;19909;-72
2022/10/31 11:53:27;;;;;;;;;;;14.60;93.90;;;;;;5058802;28;19909;-71
2022/10/31 11:56:04;;;;;;;;;;;14.60;93.30;;;;;;5056252;28;19921;-72
2022/10/31 11:58:30;;;;;;;;;;;14.80;93.50;;;;;;5061689;28;19913;-72
2022/10/31 12:00:56;;;;;;;;;;;15.00;92.50;;;;;;5063262;28;19970;-71
2022/10/31 12:03:21;;;;;;;;;;;15.30;92.10;;;;;;5055147;28;19909;-73
2022/10/31 12:05:48;;;;;;;;;;;15.80;91.50;;;;;;5060470;28;19915;-76
2022/10/31 12:08:14;;;;;;;;;;;16.30;90.40;;;;;;5058102;28;20292;-72
2022/10/31 12:10:58;;;;;;;;;;;16.50;88.50;;;;;;5060916;28;19908;-72
2022/10/31 12:13:26;;;;;;;;;;;16.50;87.00;;;;;;5057451;28;19927;-72
2022/10/31 12:15:55;;;;;;;;;;;16.10;88.20;;;;;;5059525;28;19924;-73
2022/10/31 12:18:32;;;;;;;;;;;16.20;87.80;;;;;;5050512;28;19908;-73
2022/10/31 12:21:10;;;;;;;;;;;16.70;87.70;;;;;;5056009;28;20375;-71
2022/10/31 12:23:47;;;;;;;;;;;16.70;86.00;;;;;;5052881;28;19916;-71
2022/10/31 12:26:16;;;;;;;;;;;16.10;86.30;;;;;;5034489;28;19912;-73
2022/10/31 12:28:57;;;;;;;;;;;16.80;88.30;;;;;;5056485;28;19913;-73
2022/10/31 12:31:22;;;;;;;;;;;16.90;85.80;;;;;;5064058;28;19943;-72
2022/10/31 12:34:06;;;;;;;;;;;17.20;85.40;;;;;;5054251;28;19999;-72
2022/10/31 12:36:32;;;;;;;;;;;17.40;85.70;;;;;;5059034;28;19924;-73
2022/10/31 12:38:57;;;;;;;;;;;17.50;83.30;;;;;;5055646;28;19919;-72
2022/10/31 12:41:41;;;;;;;;;;;17.40;83.90;;;;;;5051452;28;20323;-72
2022/10/31 12:44:13;;;;;;;;;;;17.10;84.00;;;;;;5055893;28;20267;-71
2022/10/31 12:46:45;;;;;;;;;;;16.90;84.80;;;;;;5059834;28;19913;-71
2022/10/31 12:49:16;;;;;;;;;;;16.80;85.60;;;;;;5051599;28;19917;-72
2022/10/31 12:51:50;;;;;;;;;;;17.00;86.10;;;;;;5056206;28;19912;-71
2022/10/31 12:54:28;;;;;;;;;;;17.30;85.50;;;;;;5056123;28;19912;-73
2022/10/31 12:57:01;;;;;;;;;;;17.60;84.70;;;;;;5059401;28;20003;-72
2022/10/31 12:59:34;;;;;;;;;;;17.50;82.90;;;;;;5055103;28;19912;-72
2022/10/31 13:02:06;;;;;;;;;;;17.70;82.90;;;;;;5057928;28;20431;-72
2022/10/31 13:04:40;;;;;;;;;;;17.80;82.90;;;;;;5055376;28;20249;-72
2022/10/31 13:07:08;;;;;;;;;;;17.70;81.80;;;;;;5054337;28;20335;-72
2022/10/31 13:09:38;;;;;;;;;;;18.00;83.60;;;;;;5055355;28;20265;-73
2022/10/31 13:12:09;;;;;;;;;;;18.10;81.10;;;;;;5050914;28;19920;-71
2022/10/31 13:14:38;;;;;;;;;;;18.00;81.10;;;;;;5058204;28;19908;-72
2022/10/31 13:17:05;;;;;;;;;;;18.20;81.10;;;;;;5056335;28;20320;-73
2022/10/31 13:19:39;;;;;;;;;;;18.30;81.30;;;;;;5058670;28;20268;-73
2022/10/31 13:22:20;;;;;;;;;;;18.50;81.80;;;;;;5060473;28;20272;-76
2022/10/31 13:24:54;;;;;;;;;;;18.40;80.40;;;;;;5059592;28;19999;-74
2022/10/31 13:27:24;;;;;;;;;;;18.20;81.50;;;;;;5055455;28;19988;-73
2022/10/31 13:30:01;;;;;;;;;;;18.10;81.60;;;;;;5048141;28;19905;-73
2022/10/31 13:32:27;;;;;;;;;;;17.70;82.20;;;;;;5063243;28;20367;-73
2022/10/31 13:34:55;;;;;;;;;;;17.20;83.30;;;;;;5065317;28;19966;-72
2022/10/31 13:37:23;;;;;;;;;;;17.00;84.10;;;;;;5059880;28;20280;-73
2022/10/31 13:39:49;;;;;;;;;;;16.90;84.40;;;;;;5061918;28;20001;-72
2022/10/31 13:42:19;;;;;;;;;;;17.20;84.40;;;;;;5041208;28;19913;-73
2022/10/31 13:44:44;;;;;;;;;;;17.40;83.90;;;;;;5058504;28;19915;-72
2022/10/31 13:47:29;;;;;;;;;;;17.70;83.50;;;;;;5056423;28;19908;-72
2022/10/31 13:50:19;;;;;;;;;;;17.80;83.00;;;;;;5054774;28;20384;-72
2022/10/31 13:52:45;;;;;;;;;;;18.10;82.40;;;;;;5055326;28;19916;-75
2022/10/31 13:55:29;;;;;;;;;;;18.00;81.60;;;;;;5057072;28;20079;-74
2022/10/31 13:57:54;;;;;;;;;;;18.20;82.40;;;;;;5054160;28;19909;-75
2022/10/31 14:00:20;;;;;;;;;;;18.30;82.30;;;;;;5066844;28;19915;-74
2022/10/31 14:02:48;;;;;;;;;;;18.50;80.80;;;;;;5060731;28;20301;-73
2022/10/31 14:05:27;;;;;;;;;;;18.50;81.10;;;;;;5061857;28;20394;-71
2022/10/31 14:07:53;;;;;;;;;;;18.20;80.80;;;;;;5064314;28;19915;-73
2022/10/31 14:10:25;;;;;;;;;;;18.20;80.80;;;;;;5066133;28;19908;-73
2022/10/31 14:12:51;;;;;;;;;;;17.80;81.40;;;;;;5062746;28;19919;-73
2022/10/31 14:15:18;;;;;;;;;;;18.00;82.20;;;;;;5058406;28;20291;-72
2022/10/31 14:17:51;;;;;;;;;;;17.70;82.20;;;;;;5058961;28;19912;-72
2022/10/31 14:20:16;;;;;;;;;;;17.80;82.80;;;;;;5055532;28;19908;-73
2022/10/31 14:22:42;;;;;;;;;;;17.50;83.40;;;;;;5065278;28;19920;-73
2022/10/31 14:25:26;;;;;;;;;;;17.20;83.90;;;;;;5054442;28;20383;-74